首页
METAR-TAF:

METAR-TAF

机场 :

上海浦东国际机场

上海 / 浦东, 中华人民共和国

纬度: 31-07N, 经度: 121-46E, 海拔: 4米

当前天气观测

该预报发布于30分钟前的01:30 UTC
风速8节,风向
温度 23°C
湿度 89%
气压 1006 hPa
能见度10公里或以上
多云层高于700英尺

METAR: ZSPD 260130Z 36004MPS 9999 BKN007 23/21 Q1006 NOSIG

时间: 10:00 (02:00 UTC)

预报

该预报发布于4小时和42分钟前的21:18 UTC
预报有效从26日的 00点(UTC)到 26日的 24点(UTC)
风速8节,风向东北
能見度: 3500
多云层高于600英尺
轻雾
成为
从 26日的 01点(UTC)到 26日的 02点(UTC)
多云层高于1100英尺

TAF: ZSPD 252118Z 2600/2624 05004MPS 3500 BR BKN006 TX25/2607Z TN20/2621Z BECMG 2601/2602 BKN011

超过4000个机场的气象观测和天气预报(METAR&TAF报告)。

可查询的气象台以黄色和红色小点在地图上表示。

将鼠标移到小点上方,可查看气象台名称。

然后点击查看天气观测和预报。

如需切换地图:点击带黑十字的绿色按钮放大地图;点击带横线的绿色按钮缩小地图;或者点击绿色箭头查看邻近地区的地图。


METAR-TAF: